Terminal Aerodrome Forecast
Issued by NWS

Home | Current Version | Previous Version | Text Only | Print | Product List | Glossary On
Versions: 1 2 3 4 5 6 7 8 9 10 11 12 13 14 15 16 17 18 19 20 21 22 23 24 25 26 27 28 29
063
FTUS44 KOHX 032340
TAFCKV
TAF
KCKV 032340Z 0400/0424 32008KT P6SM OVC080
     FM040500 29004KT P6SM BKN250
     FM041400 24012KT P6SM VCSH BKN050 OVC100
     FM041600 24011G20KT P6SM VCTS OVC050CB
     FM041800 29011G20KT 4SM TSRA OVC050CB
     FM042100 31014G25KT 5SM -TSRA BKN050CB OVC100=

USA.gov is the U.S. government's official web portal to all federal, state and local government web resources and services.